sensor_id;sensor_type;location;lat;lon;timestamp;P1;durP1;ratioP1;P2;durP2;ratioP2
71080;SDS011;58740;50.672;18.690;2022-09-09T00:07:04;12.60;;;7.60;;
71080;SDS011;58740;50.672;18.690;2022-09-09T00:09:47;13.60;;;8.20;;
71080;SDS011;58740;50.672;18.690;2022-09-09T00:12:46;10.90;;;7.80;;
71080;SDS011;58740;50.672;18.690;2022-09-09T00:15:41;13.90;;;8.30;;
71080;SDS011;58740;50.672;18.690;2022-09-09T00:19:05;14.20;;;7.90;;
71080;SDS011;58740;50.672;18.690;2022-09-09T00:22:16;12.90;;;8.70;;
71080;SDS011;58740;50.672;18.690;2022-09-09T00:27:46;13.30;;;9.40;;
71080;SDS011;58740;50.672;18.690;2022-09-09T00:30:19;11.70;;;8.20;;
71080;SDS011;58740;50.672;18.690;2022-09-09T00:32:55;15.90;;;9.00;;
71080;SDS011;58740;50.672;18.690;2022-09-09T00:35:30;12.60;;;8.90;;
71080;SDS011;58740;50.672;18.690;2022-09-09T00:38:08;13.70;;;8.20;;
71080;SDS011;58740;50.672;18.690;2022-09-09T00:43:57;11.10;;;7.70;;
71080;SDS011;58740;50.672;18.690;2022-09-09T00:49:57;14.70;;;9.20;;
71080;SDS011;58740;50.672;18.690;2022-09-09T00:58:32;12.70;;;8.40;;
71080;SDS011;58740;50.672;18.690;2022-09-09T01:01:11;13.40;;;8.20;;
71080;SDS011;58740;50.672;18.690;2022-09-09T01:03:53;14.00;;;8.70;;
71080;SDS011;58740;50.672;18.690;2022-09-09T01:09:29;14.00;;;8.40;;
71080;SDS011;58740;50.672;18.690;2022-09-09T01:12:23;17.50;;;9.00;;
71080;SDS011;58740;50.672;18.690;2022-09-09T01:15:03;14.10;;;9.40;;
71080;SDS011;58740;50.672;18.690;2022-09-09T01:18:13;12.00;;;7.90;;
71080;SDS011;58740;50.672;18.690;2022-09-09T01:24:09;13.60;;;9.00;;
71080;SDS011;58740;50.672;18.690;2022-09-09T01:26:54;14.70;;;9.00;;
71080;SDS011;58740;50.672;18.690;2022-09-09T01:29:26;13.20;;;8.90;;
71080;SDS011;58740;50.672;18.690;2022-09-09T01:31:57;15.50;;;8.50;;
71080;SDS011;58740;50.672;18.690;2022-09-09T01:34:29;13.70;;;8.80;;
71080;SDS011;58740;50.672;18.690;2022-09-09T01:37:07;14.10;;;9.10;;
71080;SDS011;58740;50.672;18.690;2022-09-09T01:39:40;16.40;;;9.30;;
71080;SDS011;58740;50.672;18.690;2022-09-09T01:42:13;14.10;;;9.40;;
71080;SDS011;58740;50.672;18.690;2022-09-09T01:44:43;16.30;;;9.80;;
71080;SDS011;58740;50.672;18.690;2022-09-09T01:47:10;17.50;;;10.10;;
71080;SDS011;58740;50.672;18.690;2022-09-09T01:49:38;14.50;;;9.80;;
71080;SDS011;58740;50.672;18.690;2022-09-09T01:52:06;15.90;;;9.90;;
71080;SDS011;58740;50.672;18.690;2022-09-09T01:54:35;16.80;;;10.10;;
71080;SDS011;58740;50.672;18.690;2022-09-09T01:57:14;14.90;;;9.40;;
71080;SDS011;58740;50.672;18.690;2022-09-09T02:05:44;15.90;;;10.70;;
71080;SDS011;58740;50.672;18.690;2022-09-09T02:08:20;15.10;;;9.90;;
71080;SDS011;58740;50.672;18.690;2022-09-09T02:13:51;16.30;;;9.80;;
71080;SDS011;58740;50.672;18.690;2022-09-09T02:17:19;14.40;;;9.00;;
71080;SDS011;58740;50.672;18.690;2022-09-09T02:19:48;15.00;;;9.00;;
71080;SDS011;58740;50.672;18.690;2022-09-09T02:22:21;12.20;;;8.90;;
71080;SDS011;58740;50.672;18.690;2022-09-09T02:24:52;13.00;;;8.60;;
71080;SDS011;58740;50.672;18.690;2022-09-09T02:27:24;12.30;;;8.30;;
71080;SDS011;58740;50.672;18.690;2022-09-09T02:29:55;11.50;;;8.10;;
71080;SDS011;58740;50.672;18.690;2022-09-09T02:32:27;13.80;;;8.30;;
71080;SDS011;58740;50.672;18.690;2022-09-09T02:35:03;13.80;;;8.00;;
71080;SDS011;58740;50.672;18.690;2022-09-09T02:37:39;13.50;;;7.30;;
71080;SDS011;58740;50.672;18.690;2022-09-09T02:40:10;12.50;;;7.90;;
71080;SDS011;58740;50.672;18.690;2022-09-09T02:42:42;11.60;;;7.60;;
71080;SDS011;58740;50.672;18.690;2022-09-09T02:45:13;10.80;;;8.00;;
71080;SDS011;58740;50.672;18.690;2022-09-09T02:48:07;12.20;;;7.90;;
71080;SDS011;58740;50.672;18.690;2022-09-09T02:51:00;11.70;;;7.70;;
71080;SDS011;58740;50.672;18.690;2022-09-09T02:56:52;10.70;;;7.90;;
71080;SDS011;58740;50.672;18.690;2022-09-09T02:59:22;15.10;;;7.80;;
71080;SDS011;58740;50.672;18.690;2022-09-09T03:01:52;11.10;;;7.50;;
71080;SDS011;58740;50.672;18.690;2022-09-09T03:04:20;9.90;;;6.90;;
71080;SDS011;58740;50.672;18.690;2022-09-09T03:06:48;10.80;;;7.30;;
71080;SDS011;58740;50.672;18.690;2022-09-09T03:09:16;10.00;;;7.40;;
71080;SDS011;58740;50.672;18.690;2022-09-09T03:11:44;9.60;;;6.90;;
71080;SDS011;58740;50.672;18.690;2022-09-09T03:14:11;11.00;;;7.40;;
71080;SDS011;58740;50.672;18.690;2022-09-09T03:16:40;11.70;;;7.60;;
71080;SDS011;58740;50.672;18.690;2022-09-09T03:19:09;12.30;;;7.50;;
71080;SDS011;58740;50.672;18.690;2022-09-09T03:21:37;10.60;;;6.30;;
71080;SDS011;58740;50.672;18.690;2022-09-09T03:24:05;10.20;;;6.50;;
71080;SDS011;58740;50.672;18.690;2022-09-09T03:26:33;10.10;;;6.70;;
71080;SDS011;58740;50.672;18.690;2022-09-09T03:29:01;10.60;;;7.10;;
71080;SDS011;58740;50.672;18.690;2022-09-09T03:31:29;10.50;;;6.60;;
71080;SDS011;58740;50.672;18.690;2022-09-09T03:33:57;11.00;;;6.90;;
71080;SDS011;58740;50.672;18.690;2022-09-09T03:36:26;9.50;;;6.70;;
71080;SDS011;58740;50.672;18.690;2022-09-09T03:38:54;11.20;;;6.20;;
71080;SDS011;58740;50.672;18.690;2022-09-09T03:41:22;11.90;;;6.80;;
71080;SDS011;58740;50.672;18.690;2022-09-09T03:43:51;10.60;;;7.00;;
71080;SDS011;58740;50.672;18.690;2022-09-09T03:46:21;10.40;;;6.80;;
71080;SDS011;58740;50.672;18.690;2022-09-09T03:48:50;9.90;;;6.70;;
71080;SDS011;58740;50.672;18.690;2022-09-09T03:51:21;9.80;;;6.70;;
71080;SDS011;58740;50.672;18.690;2022-09-09T03:53:49;10.00;;;6.70;;
71080;SDS011;58740;50.672;18.690;2022-09-09T03:56:17;11.50;;;6.30;;
71080;SDS011;58740;50.672;18.690;2022-09-09T03:58:45;9.30;;;6.40;;
71080;SDS011;58740;50.672;18.690;2022-09-09T04:01:13;10.80;;;6.90;;
71080;SDS011;58740;50.672;18.690;2022-09-09T04:03:42;10.10;;;7.10;;
71080;SDS011;58740;50.672;18.690;2022-09-09T04:06:11;10.30;;;7.40;;
71080;SDS011;58740;50.672;18.690;2022-09-09T04:08:41;8.60;;;6.20;;
71080;SDS011;58740;50.672;18.690;2022-09-09T04:11:09;10.80;;;7.20;;
71080;SDS011;58740;50.672;18.690;2022-09-09T04:13:37;10.70;;;6.50;;
71080;SDS011;58740;50.672;18.690;2022-09-09T04:16:10;11.00;;;7.90;;
71080;SDS011;58740;50.672;18.690;2022-09-09T04:18:39;10.10;;;6.60;;
71080;SDS011;58740;50.672;18.690;2022-09-09T04:21:08;9.50;;;6.50;;
71080;SDS011;58740;50.672;18.690;2022-09-09T04:23:37;9.90;;;6.40;;
71080;SDS011;58740;50.672;18.690;2022-09-09T04:26:05;12.50;;;6.70;;
71080;SDS011;58740;50.672;18.690;2022-09-09T04:28:35;11.00;;;7.90;;
71080;SDS011;58740;50.672;18.690;2022-09-09T04:31:09;11.10;;;6.40;;
71080;SDS011;58740;50.672;18.690;2022-09-09T04:33:41;12.00;;;6.90;;
71080;SDS011;58740;50.672;18.690;2022-09-09T04:36:09;9.80;;;7.60;;
71080;SDS011;58740;50.672;18.690;2022-09-09T04:38:37;10.10;;;6.90;;
71080;SDS011;58740;50.672;18.690;2022-09-09T04:41:06;11.10;;;6.90;;
71080;SDS011;58740;50.672;18.690;2022-09-09T04:43:34;11.30;;;6.90;;
71080;SDS011;58740;50.672;18.690;2022-09-09T04:46:03;10.50;;;7.00;;
71080;SDS011;58740;50.672;18.690;2022-09-09T04:48:31;9.70;;;7.50;;
71080;SDS011;58740;50.672;18.690;2022-09-09T04:51:05;8.20;;;6.40;;
71080;SDS011;58740;50.672;18.690;2022-09-09T04:53:33;11.10;;;7.40;;
71080;SDS011;58740;50.672;18.690;2022-09-09T04:56:08;10.50;;;6.40;;
71080;SDS011;58740;50.672;18.690;2022-09-09T04:58:41;11.10;;;8.20;;
71080;SDS011;58740;50.672;18.690;2022-09-09T05:01:13;11.50;;;7.30;;
71080;SDS011;58740;50.672;18.690;2022-09-09T05:03:46;14.90;;;7.80;;
71080;SDS011;58740;50.672;18.690;2022-09-09T05:06:16;9.80;;;7.60;;
71080;SDS011;58740;50.672;18.690;2022-09-09T05:08:46;10.00;;;7.80;;
71080;SDS011;58740;50.672;18.690;2022-09-09T05:11:21;13.40;;;7.80;;
71080;SDS011;58740;50.672;18.690;2022-09-09T05:13:52;11.60;;;8.10;;
71080;SDS011;58740;50.672;18.690;2022-09-09T05:16:21;13.50;;;9.10;;
71080;SDS011;58740;50.672;18.690;2022-09-09T05:18:50;12.40;;;8.90;;
71080;SDS011;58740;50.672;18.690;2022-09-09T05:21:20;12.40;;;9.10;;
71080;SDS011;58740;50.672;18.690;2022-09-09T05:23:49;11.30;;;8.80;;
71080;SDS011;58740;50.672;18.690;2022-09-09T05:26:20;13.60;;;8.90;;
71080;SDS011;58740;50.672;18.690;2022-09-09T05:28:49;10.60;;;7.70;;
71080;SDS011;58740;50.672;18.690;2022-09-09T05:31:18;9.60;;;7.20;;
71080;SDS011;58740;50.672;18.690;2022-09-09T05:33:47;11.60;;;7.10;;
71080;SDS011;58740;50.672;18.690;2022-09-09T05:36:18;11.10;;;7.00;;
71080;SDS011;58740;50.672;18.690;2022-09-09T05:38:48;9.20;;;6.70;;
71080;SDS011;58740;50.672;18.690;2022-09-09T05:41:17;10.10;;;6.20;;
71080;SDS011;58740;50.672;18.690;2022-09-09T05:43:46;11.90;;;7.00;;
71080;SDS011;58740;50.672;18.690;2022-09-09T05:46:19;8.60;;;5.80;;
71080;SDS011;58740;50.672;18.690;2022-09-09T05:48:50;9.30;;;6.30;;
71080;SDS011;58740;50.672;18.690;2022-09-09T05:51:25;7.80;;;5.70;;
71080;SDS011;58740;50.672;18.690;2022-09-09T05:53:53;8.70;;;6.40;;
71080;SDS011;58740;50.672;18.690;2022-09-09T05:56:28;10.10;;;6.60;;
71080;SDS011;58740;50.672;18.690;2022-09-09T05:58:56;11.80;;;5.50;;
71080;SDS011;58740;50.672;18.690;2022-09-09T06:01:32;9.60;;;5.90;;
71080;SDS011;58740;50.672;18.690;2022-09-09T06:04:02;8.10;;;5.40;;
71080;SDS011;58740;50.672;18.690;2022-09-09T06:06:33;10.20;;;5.70;;
71080;SDS011;58740;50.672;18.690;2022-09-09T06:09:05;8.30;;;5.90;;
71080;SDS011;58740;50.672;18.690;2022-09-09T06:11:38;9.80;;;5.40;;
71080;SDS011;58740;50.672;18.690;2022-09-09T06:14:07;12.30;;;5.80;;
71080;SDS011;58740;50.672;18.690;2022-09-09T06:16:35;7.20;;;5.10;;
71080;SDS011;58740;50.672;18.690;2022-09-09T06:19:05;8.80;;;5.40;;
71080;SDS011;58740;50.672;18.690;2022-09-09T06:21:34;9.10;;;5.40;;
71080;SDS011;58740;50.672;18.690;2022-09-09T06:24:04;6.70;;;5.20;;
71080;SDS011;58740;50.672;18.690;2022-09-09T06:26:36;8.10;;;5.30;;
71080;SDS011;58740;50.672;18.690;2022-09-09T06:29:09;6.60;;;4.80;;
71080;SDS011;58740;50.672;18.690;2022-09-09T06:31:37;7.30;;;4.80;;
71080;SDS011;58740;50.672;18.690;2022-09-09T06:34:07;9.10;;;4.90;;
71080;SDS011;58740;50.672;18.690;2022-09-09T06:36:37;9.20;;;5.10;;
71080;SDS011;58740;50.672;18.690;2022-09-09T06:39:07;7.50;;;4.60;;
71080;SDS011;58740;50.672;18.690;2022-09-09T06:41:41;7.00;;;4.50;;
71080;SDS011;58740;50.672;18.690;2022-09-09T06:44:10;6.70;;;4.40;;
71080;SDS011;58740;50.672;18.690;2022-09-09T06:46:39;8.80;;;4.70;;
71080;SDS011;58740;50.672;18.690;2022-09-09T06:49:08;8.00;;;5.00;;
71080;SDS011;58740;50.672;18.690;2022-09-09T06:51:37;7.20;;;4.20;;
71080;SDS011;58740;50.672;18.690;2022-09-09T06:54:11;7.60;;;4.70;;
71080;SDS011;58740;50.672;18.690;2022-09-09T06:56:41;6.00;;;3.70;;
71080;SDS011;58740;50.672;18.690;2022-09-09T06:59:11;6.50;;;3.90;;
71080;SDS011;58740;50.672;18.690;2022-09-09T07:01:41;7.20;;;4.40;;
71080;SDS011;58740;50.672;18.690;2022-09-09T07:04:22;6.30;;;3.70;;
71080;SDS011;58740;50.672;18.690;2022-09-09T07:06:49;7.30;;;3.60;;
71080;SDS011;58740;50.672;18.690;2022-09-09T07:09:17;6.00;;;3.10;;
71080;SDS011;58740;50.672;18.690;2022-09-09T07:11:47;7.00;;;3.40;;
71080;SDS011;58740;50.672;18.690;2022-09-09T07:14:16;5.10;;;2.70;;
71080;SDS011;58740;50.672;18.690;2022-09-09T07:16:45;5.00;;;3.00;;
71080;SDS011;58740;50.672;18.690;2022-09-09T07:19:13;5.70;;;2.90;;
71080;SDS011;58740;50.672;18.690;2022-09-09T07:21:42;6.20;;;3.20;;
71080;SDS011;58740;50.672;18.690;2022-09-09T07:24:10;6.10;;;3.20;;
71080;SDS011;58740;50.672;18.690;2022-09-09T07:26:40;4.70;;;2.90;;
71080;SDS011;58740;50.672;18.690;2022-09-09T07:29:08;5.70;;;3.10;;
71080;SDS011;58740;50.672;18.690;2022-09-09T07:31:38;4.80;;;3.10;;
71080;SDS011;58740;50.672;18.690;2022-09-09T07:34:07;5.20;;;3.10;;
71080;SDS011;58740;50.672;18.690;2022-09-09T07:36:37;5.00;;;3.00;;
71080;SDS011;58740;50.672;18.690;2022-09-09T07:39:11;6.40;;;3.80;;
71080;SDS011;58740;50.672;18.690;2022-09-09T07:41:43;4.70;;;2.80;;
71080;SDS011;58740;50.672;18.690;2022-09-09T07:44:14;4.90;;;3.20;;
71080;SDS011;58740;50.672;18.690;2022-09-09T07:46:44;5.10;;;2.90;;
71080;SDS011;58740;50.672;18.690;2022-09-09T07:49:13;6.30;;;3.10;;
71080;SDS011;58740;50.672;18.690;2022-09-09T07:51:44;3.60;;;2.40;;
71080;SDS011;58740;50.672;18.690;2022-09-09T07:54:15;4.60;;;2.90;;
71080;SDS011;58740;50.672;18.690;2022-09-09T07:56:47;5.00;;;2.70;;
71080;SDS011;58740;50.672;18.690;2022-09-09T07:59:17;4.10;;;2.60;;
71080;SDS011;58740;50.672;18.690;2022-09-09T08:01:48;5.30;;;2.90;;
71080;SDS011;58740;50.672;18.690;2022-09-09T08:04:24;4.30;;;2.60;;
71080;SDS011;58740;50.672;18.690;2022-09-09T08:06:55;5.10;;;2.70;;
71080;SDS011;58740;50.672;18.690;2022-09-09T08:09:25;4.50;;;2.20;;
71080;SDS011;58740;50.672;18.690;2022-09-09T08:11:57;3.50;;;2.00;;
71080;SDS011;58740;50.672;18.690;2022-09-09T08:14:25;6.60;;;2.70;;
71080;SDS011;58740;50.672;18.690;2022-09-09T08:16:53;6.60;;;2.10;;
71080;SDS011;58740;50.672;18.690;2022-09-09T08:19:21;4.90;;;2.30;;
71080;SDS011;58740;50.672;18.690;2022-09-09T08:21:49;4.90;;;2.50;;
71080;SDS011;58740;50.672;18.690;2022-09-09T08:24:17;3.60;;;2.30;;
71080;SDS011;58740;50.672;18.690;2022-09-09T08:26:48;4.30;;;2.40;;
71080;SDS011;58740;50.672;18.690;2022-09-09T08:29:17;3.40;;;2.10;;
71080;SDS011;58740;50.672;18.690;2022-09-09T08:31:48;8.60;;;5.20;;
71080;SDS011;58740;50.672;18.690;2022-09-09T08:34:18;6.80;;;3.50;;
71080;SDS011;58740;50.672;18.690;2022-09-09T08:36:49;4.60;;;2.50;;
71080;SDS011;58740;50.672;18.690;2022-09-09T08:39:20;4.70;;;2.90;;
71080;SDS011;58740;50.672;18.690;2022-09-09T08:45:06;5.40;;;2.60;;
71080;SDS011;58740;50.672;18.690;2022-09-09T08:48:15;5.10;;;2.80;;
71080;SDS011;58740;50.672;18.690;2022-09-09T08:50:52;5.00;;;2.70;;
71080;SDS011;58740;50.672;18.690;2022-09-09T08:53:28;4.80;;;2.40;;
71080;SDS011;58740;50.672;18.690;2022-09-09T08:56:12;5.50;;;2.60;;
71080;SDS011;58740;50.672;18.690;2022-09-09T08:58:47;8.30;;;2.70;;
71080;SDS011;58740;50.672;18.690;2022-09-09T09:01:44;4.10;;;2.60;;
71080;SDS011;58740;50.672;18.690;2022-09-09T09:04:38;5.20;;;2.70;;
71080;SDS011;58740;50.672;18.690;2022-09-09T09:07:29;5.50;;;2.40;;
71080;SDS011;58740;50.672;18.690;2022-09-09T09:13:13;4.60;;;2.60;;
71080;SDS011;58740;50.672;18.690;2022-09-09T09:15:47;4.10;;;2.70;;
71080;SDS011;58740;50.672;18.690;2022-09-09T09:18:20;4.30;;;2.60;;
71080;SDS011;58740;50.672;18.690;2022-09-09T09:20:54;7.00;;;2.50;;
71080;SDS011;58740;50.672;18.690;2022-09-09T09:23:56;4.80;;;2.50;;
71080;SDS011;58740;50.672;18.690;2022-09-09T09:26:30;6.10;;;2.30;;
71080;SDS011;58740;50.672;18.690;2022-09-09T09:29:14;4.10;;;2.10;;
71080;SDS011;58740;50.672;18.690;2022-09-09T09:31:49;4.20;;;2.30;;
71080;SDS011;58740;50.672;18.690;2022-09-09T09:34:22;5.50;;;2.50;;
71080;SDS011;58740;50.672;18.690;2022-09-09T09:36:56;4.00;;;2.20;;
71080;SDS011;58740;50.672;18.690;2022-09-09T09:39:31;6.00;;;2.50;;
71080;SDS011;58740;50.672;18.690;2022-09-09T09:42:23;4.50;;;2.30;;
71080;SDS011;58740;50.672;18.690;2022-09-09T09:44:52;4.20;;;2.10;;
71080;SDS011;58740;50.672;18.690;2022-09-09T09:47:21;4.80;;;2.60;;
71080;SDS011;58740;50.672;18.690;2022-09-09T09:49:58;4.80;;;2.40;;
71080;SDS011;58740;50.672;18.690;2022-09-09T09:52:29;2.80;;;1.70;;
71080;SDS011;58740;50.672;18.690;2022-09-09T09:54:58;4.90;;;2.30;;
71080;SDS011;58740;50.672;18.690;2022-09-09T09:57:34;4.10;;;2.00;;
71080;SDS011;58740;50.672;18.690;2022-09-09T10:00:18;3.20;;;2.00;;
71080;SDS011;58740;50.672;18.690;2022-09-09T10:02:48;5.70;;;2.30;;
71080;SDS011;58740;50.672;18.690;2022-09-09T10:05:21;3.50;;;2.10;;
71080;SDS011;58740;50.672;18.690;2022-09-09T10:13:33;3.50;;;2.20;;
71080;SDS011;58740;50.672;18.690;2022-09-09T10:19:00;7.50;;;2.80;;
71080;SDS011;58740;50.672;18.690;2022-09-09T10:33:49;5.10;;;1.90;;
71080;SDS011;58740;50.672;18.690;2022-09-09T10:36:25;4.90;;;2.30;;
71080;SDS011;58740;50.672;18.690;2022-09-09T10:42:05;4.00;;;1.90;;
71080;SDS011;58740;50.672;18.690;2022-09-09T10:57:33;3.40;;;1.80;;
71080;SDS011;58740;50.672;18.690;2022-09-09T11:00:15;3.50;;;1.40;;
71080;SDS011;58740;50.672;18.690;2022-09-09T11:02:58;3.80;;;1.60;;
71080;SDS011;58740;50.672;18.690;2022-09-09T11:05:42;4.20;;;2.00;;
71080;SDS011;58740;50.672;18.690;2022-09-09T11:08:24;7.60;;;2.20;;
71080;SDS011;58740;50.672;18.690;2022-09-09T11:11:19;3.70;;;2.10;;
71080;SDS011;58740;50.672;18.690;2022-09-09T11:14:03;3.70;;;2.20;;
71080;SDS011;58740;50.672;18.690;2022-09-09T11:19:30;3.70;;;1.90;;
71080;SDS011;58740;50.672;18.690;2022-09-09T11:22:18;5.60;;;1.90;;
71080;SDS011;58740;50.672;18.690;2022-09-09T11:25:16;4.20;;;1.80;;
71080;SDS011;58740;50.672;18.690;2022-09-09T11:33:46;8.00;;;2.40;;
71080;SDS011;58740;50.672;18.690;2022-09-09T11:40:36;3.30;;;1.80;;
71080;SDS011;58740;50.672;18.690;2022-09-09T11:43:17;5.30;;;2.20;;
71080;SDS011;58740;50.672;18.690;2022-09-09T11:45:55;3.40;;;1.50;;
71080;SDS011;58740;50.672;18.690;2022-09-09T11:48:39;2.70;;;1.80;;
71080;SDS011;58740;50.672;18.690;2022-09-09T11:51:26;3.40;;;2.00;;
71080;SDS011;58740;50.672;18.690;2022-09-09T11:53:56;3.20;;;1.70;;
71080;SDS011;58740;50.672;18.690;2022-09-09T11:56:29;3.10;;;1.50;;
71080;SDS011;58740;50.672;18.690;2022-09-09T11:59:03;3.90;;;1.80;;
71080;SDS011;58740;50.672;18.690;2022-09-09T12:17:19;5.20;;;2.00;;
71080;SDS011;58740;50.672;18.690;2022-09-09T12:26:07;3.40;;;1.70;;
71080;SDS011;58740;50.672;18.690;2022-09-09T12:32:24;5.50;;;2.40;;
71080;SDS011;58740;50.672;18.690;2022-09-09T12:34:55;6.00;;;1.80;;
71080;SDS011;58740;50.672;18.690;2022-09-09T12:37:55;3.00;;;1.50;;
71080;SDS011;58740;50.672;18.690;2022-09-09T12:40:28;4.90;;;1.50;;
71080;SDS011;58740;50.672;18.690;2022-09-09T12:42:59;3.60;;;1.80;;
71080;SDS011;58740;50.672;18.690;2022-09-09T12:45:31;2.90;;;1.90;;
71080;SDS011;58740;50.672;18.690;2022-09-09T12:48:20;2.70;;;1.20;;
71080;SDS011;58740;50.672;18.690;2022-09-09T12:50:50;3.30;;;1.90;;
71080;SDS011;58740;50.672;18.690;2022-09-09T12:53:30;3.30;;;1.80;;
71080;SDS011;58740;50.672;18.690;2022-09-09T12:56:04;4.40;;;2.30;;
71080;SDS011;58740;50.672;18.690;2022-09-09T12:58:38;4.00;;;1.80;;
71080;SDS011;58740;50.672;18.690;2022-09-09T13:01:21;2.80;;;1.40;;
71080;SDS011;58740;50.672;18.690;2022-09-09T13:03:54;2.70;;;1.50;;
71080;SDS011;58740;50.672;18.690;2022-09-09T13:06:24;3.50;;;1.60;;
71080;SDS011;58740;50.672;18.690;2022-09-09T13:08:58;6.20;;;2.30;;
71080;SDS011;58740;50.672;18.690;2022-09-09T13:11:36;4.40;;;1.60;;
71080;SDS011;58740;50.672;18.690;2022-09-09T13:14:24;2.40;;;1.20;;
71080;SDS011;58740;50.672;18.690;2022-09-09T13:17:01;3.10;;;1.60;;
71080;SDS011;58740;50.672;18.690;2022-09-09T13:19:35;4.30;;;1.50;;
71080;SDS011;58740;50.672;18.690;2022-09-09T13:22:13;3.40;;;1.30;;
71080;SDS011;58740;50.672;18.690;2022-09-09T13:24:42;3.10;;;1.50;;
71080;SDS011;58740;50.672;18.690;2022-09-09T13:27:32;4.40;;;1.50;;
71080;SDS011;58740;50.672;18.690;2022-09-09T13:30:19;2.70;;;1.40;;
71080;SDS011;58740;50.672;18.690;2022-09-09T13:33:17;3.20;;;1.60;;
71080;SDS011;58740;50.672;18.690;2022-09-09T13:35:52;2.30;;;1.00;;
71080;SDS011;58740;50.672;18.690;2022-09-09T13:38:23;3.10;;;1.50;;
71080;SDS011;58740;50.672;18.690;2022-09-09T13:43:27;4.50;;;1.50;;
71080;SDS011;58740;50.672;18.690;2022-09-09T13:45:59;2.30;;;1.30;;
71080;SDS011;58740;50.672;18.690;2022-09-09T13:48:29;4.20;;;1.60;;
71080;SDS011;58740;50.672;18.690;2022-09-09T13:51:01;3.10;;;1.60;;
71080;SDS011;58740;50.672;18.690;2022-09-09T13:53:32;4.90;;;1.70;;
71080;SDS011;58740;50.672;18.690;2022-09-09T13:56:00;2.70;;;1.30;;
71080;SDS011;58740;50.672;18.690;2022-09-09T13:58:28;3.20;;;1.40;;
71080;SDS011;58740;50.672;18.690;2022-09-09T14:00:56;3.50;;;1.40;;
71080;SDS011;58740;50.672;18.690;2022-09-09T14:03:24;3.50;;;1.10;;
71080;SDS011;58740;50.672;18.690;2022-09-09T14:05:52;4.10;;;1.20;;
71080;SDS011;58740;50.672;18.690;2022-09-09T14:08:24;2.60;;;1.10;;
71080;SDS011;58740;50.672;18.690;2022-09-09T14:10:53;2.50;;;1.40;;
71080;SDS011;58740;50.672;18.690;2022-09-09T14:13:23;3.00;;;1.40;;
71080;SDS011;58740;50.672;18.690;2022-09-09T14:15:50;2.60;;;1.30;;
71080;SDS011;58740;50.672;18.690;2022-09-09T14:18:18;3.10;;;1.30;;
71080;SDS011;58740;50.672;18.690;2022-09-09T14:20:45;2.70;;;1.10;;
71080;SDS011;58740;50.672;18.690;2022-09-09T14:23:13;5.90;;;1.20;;
71080;SDS011;58740;50.672;18.690;2022-09-09T14:25:43;9.90;;;6.00;;
71080;SDS011;58740;50.672;18.690;2022-09-09T14:28:12;2.50;;;1.30;;
71080;SDS011;58740;50.672;18.690;2022-09-09T14:30:42;3.60;;;1.40;;
71080;SDS011;58740;50.672;18.690;2022-09-09T14:33:14;3.40;;;1.10;;
71080;SDS011;58740;50.672;18.690;2022-09-09T14:35:43;2.60;;;1.10;;
71080;SDS011;58740;50.672;18.690;2022-09-09T14:38:11;2.20;;;1.00;;
71080;SDS011;58740;50.672;18.690;2022-09-09T14:40:45;5.60;;;1.20;;
71080;SDS011;58740;50.672;18.690;2022-09-09T14:43:14;2.10;;;1.00;;
71080;SDS011;58740;50.672;18.690;2022-09-09T14:45:42;6.90;;;1.60;;
71080;SDS011;58740;50.672;18.690;2022-09-09T14:48:11;3.50;;;1.20;;
71080;SDS011;58740;50.672;18.690;2022-09-09T14:50:38;3.20;;;1.20;;
71080;SDS011;58740;50.672;18.690;2022-09-09T14:53:08;4.10;;;1.30;;
71080;SDS011;58740;50.672;18.690;2022-09-09T14:55:37;2.50;;;1.20;;
71080;SDS011;58740;50.672;18.690;2022-09-09T14:58:05;3.10;;;1.20;;
71080;SDS011;58740;50.672;18.690;2022-09-09T15:00:33;2.90;;;1.10;;
71080;SDS011;58740;50.672;18.690;2022-09-09T15:03:01;5.00;;;1.50;;
71080;SDS011;58740;50.672;18.690;2022-09-09T15:05:29;2.80;;;1.00;;
71080;SDS011;58740;50.672;18.690;2022-09-09T15:07:58;4.10;;;1.30;;
71080;SDS011;58740;50.672;18.690;2022-09-09T15:10:26;3.20;;;1.10;;
71080;SDS011;58740;50.672;18.690;2022-09-09T15:12:53;3.70;;;1.30;;
71080;SDS011;58740;50.672;18.690;2022-09-09T15:15:21;4.40;;;1.30;;
71080;SDS011;58740;50.672;18.690;2022-09-09T15:17:48;4.30;;;1.30;;
71080;SDS011;58740;50.672;18.690;2022-09-09T15:20:16;3.80;;;1.30;;
71080;SDS011;58740;50.672;18.690;2022-09-09T15:22:44;2.20;;;1.20;;
71080;SDS011;58740;50.672;18.690;2022-09-09T15:25:11;3.00;;;1.30;;
71080;SDS011;58740;50.672;18.690;2022-09-09T15:27:39;4.40;;;1.20;;
71080;SDS011;58740;50.672;18.690;2022-09-09T15:30:08;3.20;;;1.00;;
71080;SDS011;58740;50.672;18.690;2022-09-09T15:32:36;3.00;;;1.20;;
71080;SDS011;58740;50.672;18.690;2022-09-09T15:35:04;4.10;;;1.20;;
71080;SDS011;58740;50.672;18.690;2022-09-09T15:37:32;4.60;;;1.10;;
71080;SDS011;58740;50.672;18.690;2022-09-09T15:39:59;2.70;;;1.20;;
71080;SDS011;58740;50.672;18.690;2022-09-09T15:42:28;3.40;;;1.20;;
71080;SDS011;58740;50.672;18.690;2022-09-09T15:44:57;5.00;;;1.20;;
71080;SDS011;58740;50.672;18.690;2022-09-09T15:47:25;5.90;;;1.50;;
71080;SDS011;58740;50.672;18.690;2022-09-09T15:49:54;3.20;;;1.10;;
71080;SDS011;58740;50.672;18.690;2022-09-09T15:52:21;3.80;;;1.20;;
71080;SDS011;58740;50.672;18.690;2022-09-09T15:54:49;5.00;;;1.90;;
71080;SDS011;58740;50.672;18.690;2022-09-09T15:57:17;6.10;;;1.50;;
71080;SDS011;58740;50.672;18.690;2022-09-09T15:59:44;4.40;;;1.50;;
71080;SDS011;58740;50.672;18.690;2022-09-09T16:02:12;4.50;;;1.70;;
71080;SDS011;58740;50.672;18.690;2022-09-09T16:04:40;3.20;;;1.30;;
71080;SDS011;58740;50.672;18.690;2022-09-09T16:07:07;2.80;;;1.20;;
71080;SDS011;58740;50.672;18.690;2022-09-09T16:09:35;4.90;;;1.60;;
71080;SDS011;58740;50.672;18.690;2022-09-09T16:12:04;4.40;;;1.50;;
71080;SDS011;58740;50.672;18.690;2022-09-09T16:14:37;3.60;;;1.10;;
71080;SDS011;58740;50.672;18.690;2022-09-09T16:17:06;6.10;;;1.80;;
71080;SDS011;58740;50.672;18.690;2022-09-09T16:19:33;3.60;;;1.40;;
71080;SDS011;58740;50.672;18.690;2022-09-09T16:22:02;3.40;;;1.60;;
71080;SDS011;58740;50.672;18.690;2022-09-09T16:24:31;3.90;;;1.70;;
71080;SDS011;58740;50.672;18.690;2022-09-09T16:26:59;4.10;;;1.60;;
71080;SDS011;58740;50.672;18.690;2022-09-09T16:29:27;3.60;;;1.60;;
71080;SDS011;58740;50.672;18.690;2022-09-09T16:31:55;4.00;;;1.60;;
71080;SDS011;58740;50.672;18.690;2022-09-09T16:34:29;5.40;;;1.60;;
71080;SDS011;58740;50.672;18.690;2022-09-09T16:36:57;4.70;;;1.90;;
71080;SDS011;58740;50.672;18.690;2022-09-09T16:39:24;4.00;;;2.00;;
71080;SDS011;58740;50.672;18.690;2022-09-09T16:41:52;4.40;;;1.70;;
71080;SDS011;58740;50.672;18.690;2022-09-09T16:44:19;4.30;;;2.30;;
71080;SDS011;58740;50.672;18.690;2022-09-09T16:46:48;3.90;;;2.10;;
71080;SDS011;58740;50.672;18.690;2022-09-09T16:49:24;4.40;;;2.20;;
71080;SDS011;58740;50.672;18.690;2022-09-09T16:51:52;3.50;;;1.80;;
71080;SDS011;58740;50.672;18.690;2022-09-09T16:54:22;4.00;;;2.20;;
71080;SDS011;58740;50.672;18.690;2022-09-09T16:56:54;6.10;;;2.10;;
71080;SDS011;58740;50.672;18.690;2022-09-09T16:59:22;4.50;;;2.00;;
71080;SDS011;58740;50.672;18.690;2022-09-09T17:01:51;6.40;;;2.40;;
71080;SDS011;58740;50.672;18.690;2022-09-09T17:04:25;4.90;;;2.40;;
71080;SDS011;58740;50.672;18.690;2022-09-09T17:06:55;5.40;;;2.20;;
71080;SDS011;58740;50.672;18.690;2022-09-09T17:09:25;5.30;;;2.50;;